Terminal Aerodrome Forecast
Issued by NWS

Home | Current Version | Previous Version | Text Only | Print | Product List | Glossary On
Versions: 1 2 3 4 5 6 7 8 9 10 11 12 13 14 15 16 17 18 19 20 21 22 23 24
000
FTUS46 KLOX 260200 AAB
TAFPRB
TAF AMD
KPRB 260211Z 2602/2624 31017G24KT P6SM SKC
     FM260500 32014KT P6SM SKC
     FM260900 32008KT P6SM SCT250
     FM261100 34004KT P6SM OVC025
     FM261800 33004KT P6SM SKC
     FM262100 33010KT P6SM SCT250=

USA.gov is the U.S. government's official web portal to all federal, state and local government web resources and services.